sensor_id;sensor_type;location;lat;lon;timestamp;temperature;humidity
18103;DHT22;9178;51.120;6.192;2023-12-14T00:01:38;7.90;99.90
18103;DHT22;9178;51.120;6.192;2023-12-14T00:04:06;7.90;99.90
18103;DHT22;9178;51.120;6.192;2023-12-14T00:06:32;7.90;99.90
18103;DHT22;9178;51.120;6.192;2023-12-14T00:08:59;7.90;99.90
18103;DHT22;9178;51.120;6.192;2023-12-14T00:11:28;8.00;99.90
18103;DHT22;9178;51.120;6.192;2023-12-14T00:13:56;8.00;99.90
18103;DHT22;9178;51.120;6.192;2023-12-14T00:16:23;7.90;99.90
18103;DHT22;9178;51.120;6.192;2023-12-14T00:18:50;8.00;99.90
18103;DHT22;9178;51.120;6.192;2023-12-14T00:21:17;7.90;99.90
18103;DHT22;9178;51.120;6.192;2023-12-14T00:23:44;8.00;99.90
18103;DHT22;9178;51.120;6.192;2023-12-14T00:26:11;8.00;99.90
18103;DHT22;9178;51.120;6.192;2023-12-14T00:28:42;8.00;99.90
18103;DHT22;9178;51.120;6.192;2023-12-14T00:31:09;8.00;99.90
18103;DHT22;9178;51.120;6.192;2023-12-14T00:33:38;8.00;99.90
18103;DHT22;9178;51.120;6.192;2023-12-14T00:36:05;8.00;99.90
18103;DHT22;9178;51.120;6.192;2023-12-14T00:38:59;8.00;99.90
18103;DHT22;9178;51.120;6.192;2023-12-14T00:41:31;8.00;99.90
18103;DHT22;9178;51.120;6.192;2023-12-14T00:44:00;8.00;99.90
18103;DHT22;9178;51.120;6.192;2023-12-14T00:46:27;8.00;99.90
18103;DHT22;9178;51.120;6.192;2023-12-14T00:48:54;8.00;99.90
18103;DHT22;9178;51.120;6.192;2023-12-14T00:51:23;8.00;99.90
18103;DHT22;9178;51.120;6.192;2023-12-14T00:53:50;8.00;99.90
18103;DHT22;9178;51.120;6.192;2023-12-14T00:56:17;8.00;99.90
18103;DHT22;9178;51.120;6.192;2023-12-14T00:58:44;8.00;99.90
18103;DHT22;9178;51.120;6.192;2023-12-14T01:01:13;8.00;99.90
18103;DHT22;9178;51.120;6.192;2023-12-14T01:03:40;8.00;99.90
18103;DHT22;9178;51.120;6.192;2023-12-14T01:06:07;7.90;99.90
18103;DHT22;9178;51.120;6.192;2023-12-14T01:08:34;7.90;99.90
18103;DHT22;9178;51.120;6.192;2023-12-14T01:11:01;7.90;99.90
18103;DHT22;9178;51.120;6.192;2023-12-14T01:13:28;7.90;99.90
18103;DHT22;9178;51.120;6.192;2023-12-14T01:15:55;7.90;99.90
18103;DHT22;9178;51.120;6.192;2023-12-14T01:18:27;7.90;99.90
18103;DHT22;9178;51.120;6.192;2023-12-14T01:20:53;7.90;99.90
18103;DHT22;9178;51.120;6.192;2023-12-14T01:23:21;7.90;99.90
18103;DHT22;9178;51.120;6.192;2023-12-14T01:25:48;7.90;99.90
18103;DHT22;9178;51.120;6.192;2023-12-14T01:28:15;7.90;99.90
18103;DHT22;9178;51.120;6.192;2023-12-14T01:30:44;7.90;99.90
18103;DHT22;9178;51.120;6.192;2023-12-14T01:33:16;7.80;99.90
18103;DHT22;9178;51.120;6.192;2023-12-14T01:35:44;7.80;99.90
18103;DHT22;9178;51.120;6.192;2023-12-14T01:38:11;7.80;99.90
18103;DHT22;9178;51.120;6.192;2023-12-14T01:40:38;7.80;99.90
18103;DHT22;9178;51.120;6.192;2023-12-14T01:43:09;7.80;99.90
18103;DHT22;9178;51.120;6.192;2023-12-14T01:45:39;7.70;99.90
18103;DHT22;9178;51.120;6.192;2023-12-14T01:48:07;7.70;99.90
18103;DHT22;9178;51.120;6.192;2023-12-14T01:50:34;7.60;99.90
18103;DHT22;9178;51.120;6.192;2023-12-14T01:53:02;7.60;99.90
18103;DHT22;9178;51.120;6.192;2023-12-14T01:55:29;7.60;99.90
18103;DHT22;9178;51.120;6.192;2023-12-14T01:57:56;7.60;99.90
18103;DHT22;9178;51.120;6.192;2023-12-14T02:00:30;7.50;99.90
18103;DHT22;9178;51.120;6.192;2023-12-14T02:03:02;7.50;99.90
18103;DHT22;9178;51.120;6.192;2023-12-14T02:05:38;7.40;99.90
18103;DHT22;9178;51.120;6.192;2023-12-14T02:08:08;7.40;99.90
18103;DHT22;9178;51.120;6.192;2023-12-14T02:10:35;7.50;99.90
18103;DHT22;9178;51.120;6.192;2023-12-14T02:13:02;7.40;99.90
18103;DHT22;9178;51.120;6.192;2023-12-14T02:15:29;7.30;99.90
18103;DHT22;9178;51.120;6.192;2023-12-14T02:18:09;7.30;99.90
18103;DHT22;9178;51.120;6.192;2023-12-14T02:20:36;7.30;99.90
18103;DHT22;9178;51.120;6.192;2023-12-14T02:23:07;7.30;99.90
18103;DHT22;9178;51.120;6.192;2023-12-14T02:25:35;7.30;99.90
18103;DHT22;9178;51.120;6.192;2023-12-14T02:28:05;7.20;99.90
18103;DHT22;9178;51.120;6.192;2023-12-14T02:30:37;7.20;99.90
18103;DHT22;9178;51.120;6.192;2023-12-14T02:33:04;7.20;99.90
18103;DHT22;9178;51.120;6.192;2023-12-14T02:35:31;7.20;99.90
18103;DHT22;9178;51.120;6.192;2023-12-14T02:38:01;7.20;99.90
18103;DHT22;9178;51.120;6.192;2023-12-14T02:40:36;7.20;99.90
18103;DHT22;9178;51.120;6.192;2023-12-14T02:43:06;7.10;99.90
18103;DHT22;9178;51.120;6.192;2023-12-14T02:45:35;7.10;99.90
18103;DHT22;9178;51.120;6.192;2023-12-14T02:48:03;7.10;99.90
18103;DHT22;9178;51.120;6.192;2023-12-14T02:50:30;7.10;99.90
18103;DHT22;9178;51.120;6.192;2023-12-14T02:53:02;7.00;99.90
18103;DHT22;9178;51.120;6.192;2023-12-14T02:55:29;7.00;99.90
18103;DHT22;9178;51.120;6.192;2023-12-14T02:57:57;7.00;99.90
18103;DHT22;9178;51.120;6.192;2023-12-14T03:00:27;7.00;99.90
18103;DHT22;9178;51.120;6.192;2023-12-14T03:02:55;7.00;99.90
18103;DHT22;9178;51.120;6.192;2023-12-14T03:05:22;7.00;99.90
18103;DHT22;9178;51.120;6.192;2023-12-14T03:07:52;7.00;99.90
18103;DHT22;9178;51.120;6.192;2023-12-14T03:10:19;7.00;99.90
18103;DHT22;9178;51.120;6.192;2023-12-14T03:12:47;7.00;99.90
18103;DHT22;9178;51.120;6.192;2023-12-14T03:15:19;6.90;99.90
18103;DHT22;9178;51.120;6.192;2023-12-14T03:17:48;6.90;99.90
18103;DHT22;9178;51.120;6.192;2023-12-14T03:20:15;6.80;99.90
18103;DHT22;9178;51.120;6.192;2023-12-14T03:22:42;6.80;99.90
18103;DHT22;9178;51.120;6.192;2023-12-14T03:25:10;6.80;99.90
18103;DHT22;9178;51.120;6.192;2023-12-14T03:27:46;6.80;99.90
18103;DHT22;9178;51.120;6.192;2023-12-14T03:30:13;6.80;99.90
18103;DHT22;9178;51.120;6.192;2023-12-14T03:32:42;6.80;99.90
18103;DHT22;9178;51.120;6.192;2023-12-14T03:35:15;6.80;99.90
18103;DHT22;9178;51.120;6.192;2023-12-14T03:37:42;6.80;99.90
18103;DHT22;9178;51.120;6.192;2023-12-14T03:40:09;6.80;99.90
18103;DHT22;9178;51.120;6.192;2023-12-14T03:42:37;6.70;99.90
18103;DHT22;9178;51.120;6.192;2023-12-14T03:45:04;6.70;99.90
18103;DHT22;9178;51.120;6.192;2023-12-14T03:47:32;6.70;99.90
18103;DHT22;9178;51.120;6.192;2023-12-14T03:50:00;6.70;99.90
18103;DHT22;9178;51.120;6.192;2023-12-14T03:52:27;6.60;99.90
18103;DHT22;9178;51.120;6.192;2023-12-14T03:54:57;6.60;99.90
18103;DHT22;9178;51.120;6.192;2023-12-14T03:57:24;6.60;99.90
18103;DHT22;9178;51.120;6.192;2023-12-14T03:59:53;6.60;99.90
18103;DHT22;9178;51.120;6.192;2023-12-14T04:02:20;6.50;99.90
18103;DHT22;9178;51.120;6.192;2023-12-14T04:04:47;6.50;99.90
18103;DHT22;9178;51.120;6.192;2023-12-14T04:07:15;6.50;99.90
18103;DHT22;9178;51.120;6.192;2023-12-14T04:09:48;6.50;99.90
18103;DHT22;9178;51.120;6.192;2023-12-14T04:12:15;6.50;99.90
18103;DHT22;9178;51.120;6.192;2023-12-14T04:14:43;6.50;99.90
18103;DHT22;9178;51.120;6.192;2023-12-14T04:17:12;6.50;99.90
18103;DHT22;9178;51.120;6.192;2023-12-14T04:19:39;6.40;99.90
18103;DHT22;9178;51.120;6.192;2023-12-14T04:22:06;6.50;99.90
18103;DHT22;9178;51.120;6.192;2023-12-14T04:24:35;6.50;99.90
18103;DHT22;9178;51.120;6.192;2023-12-14T04:27:02;6.40;99.90
18103;DHT22;9178;51.120;6.192;2023-12-14T04:29:34;6.50;99.90
18103;DHT22;9178;51.120;6.192;2023-12-14T04:32:01;6.50;99.90
18103;DHT22;9178;51.120;6.192;2023-12-14T04:34:28;6.50;99.90
18103;DHT22;9178;51.120;6.192;2023-12-14T04:36:57;6.50;99.90
18103;DHT22;9178;51.120;6.192;2023-12-14T04:39:24;6.50;99.90
18103;DHT22;9178;51.120;6.192;2023-12-14T04:41:53;6.50;99.90
18103;DHT22;9178;51.120;6.192;2023-12-14T04:44:20;6.40;99.90
18103;DHT22;9178;51.120;6.192;2023-12-14T04:46:48;6.40;99.90
18103;DHT22;9178;51.120;6.192;2023-12-14T04:49:16;6.40;99.90
18103;DHT22;9178;51.120;6.192;2023-12-14T04:51:43;6.40;99.90
18103;DHT22;9178;51.120;6.192;2023-12-14T04:54:13;6.40;99.90
18103;DHT22;9178;51.120;6.192;2023-12-14T04:56:40;6.40;99.90
18103;DHT22;9178;51.120;6.192;2023-12-14T04:59:15;6.30;99.90
18103;DHT22;9178;51.120;6.192;2023-12-14T05:01:42;6.30;99.90
18103;DHT22;9178;51.120;6.192;2023-12-14T05:04:09;6.30;99.90
18103;DHT22;9178;51.120;6.192;2023-12-14T05:06:38;6.30;99.90
18103;DHT22;9178;51.120;6.192;2023-12-14T05:09:07;6.30;99.90
18103;DHT22;9178;51.120;6.192;2023-12-14T05:11:34;6.30;99.90
18103;DHT22;9178;51.120;6.192;2023-12-14T05:14:01;6.30;99.90
18103;DHT22;9178;51.120;6.192;2023-12-14T05:16:30;6.30;99.90
18103;DHT22;9178;51.120;6.192;2023-12-14T05:18:57;6.30;99.90
18103;DHT22;9178;51.120;6.192;2023-12-14T05:21:25;6.30;99.90
18103;DHT22;9178;51.120;6.192;2023-12-14T05:23:52;6.20;99.90
18103;DHT22;9178;51.120;6.192;2023-12-14T05:26:19;6.20;99.90
18103;DHT22;9178;51.120;6.192;2023-12-14T05:28:50;6.20;99.90
18103;DHT22;9178;51.120;6.192;2023-12-14T05:31:30;6.20;99.90
18103;DHT22;9178;51.120;6.192;2023-12-14T05:33:58;6.20;99.90
18103;DHT22;9178;51.120;6.192;2023-12-14T05:36:30;6.20;99.90
18103;DHT22;9178;51.120;6.192;2023-12-14T05:41:42;6.20;99.90
18103;DHT22;9178;51.120;6.192;2023-12-14T05:44:12;6.20;99.90
18103;DHT22;9178;51.120;6.192;2023-12-14T05:46:41;6.20;99.90
18103;DHT22;9178;51.120;6.192;2023-12-14T05:49:08;6.20;99.90
18103;DHT22;9178;51.120;6.192;2023-12-14T05:51:35;6.20;99.90
18103;DHT22;9178;51.120;6.192;2023-12-14T05:54:04;6.10;99.90
18103;DHT22;9178;51.120;6.192;2023-12-14T05:56:34;6.10;99.90
18103;DHT22;9178;51.120;6.192;2023-12-14T05:59:02;6.10;99.90
18103;DHT22;9178;51.120;6.192;2023-12-14T06:01:40;6.10;99.90
18103;DHT22;9178;51.120;6.192;2023-12-14T06:04:08;6.00;99.90
18103;DHT22;9178;51.120;6.192;2023-12-14T06:06:38;6.00;99.90
18103;DHT22;9178;51.120;6.192;2023-12-14T06:09:05;6.00;99.90
18103;DHT22;9178;51.120;6.192;2023-12-14T06:11:33;6.00;99.90
18103;DHT22;9178;51.120;6.192;2023-12-14T06:14:01;6.00;99.90
18103;DHT22;9178;51.120;6.192;2023-12-14T06:16:28;6.00;99.90
18103;DHT22;9178;51.120;6.192;2023-12-14T06:18:57;6.00;99.90
18103;DHT22;9178;51.120;6.192;2023-12-14T06:21:24;6.00;99.90
18103;DHT22;9178;51.120;6.192;2023-12-14T06:23:57;5.90;99.90
18103;DHT22;9178;51.120;6.192;2023-12-14T06:26:24;5.90;99.90
18103;DHT22;9178;51.120;6.192;2023-12-14T06:28:51;6.00;99.90
18103;DHT22;9178;51.120;6.192;2023-12-14T06:31:19;5.90;99.90
18103;DHT22;9178;51.120;6.192;2023-12-14T06:33:47;6.00;99.90
18103;DHT22;9178;51.120;6.192;2023-12-14T06:36:17;6.00;99.90
18103;DHT22;9178;51.120;6.192;2023-12-14T06:38:47;6.00;99.90
18103;DHT22;9178;51.120;6.192;2023-12-14T06:41:20;6.00;99.90
18103;DHT22;9178;51.120;6.192;2023-12-14T06:43:48;5.90;99.90
18103;DHT22;9178;51.120;6.192;2023-12-14T06:46:15;5.90;99.90
18103;DHT22;9178;51.120;6.192;2023-12-14T06:48:45;5.90;99.90
18103;DHT22;9178;51.120;6.192;2023-12-14T06:51:12;5.90;99.90
18103;DHT22;9178;51.120;6.192;2023-12-14T06:53:42;5.80;99.90
18103;DHT22;9178;51.120;6.192;2023-12-14T06:56:10;5.70;99.90
18103;DHT22;9178;51.120;6.192;2023-12-14T06:58:38;5.70;99.90
18103;DHT22;9178;51.120;6.192;2023-12-14T07:01:11;5.80;99.90
18103;DHT22;9178;51.120;6.192;2023-12-14T07:03:40;5.80;99.90
18103;DHT22;9178;51.120;6.192;2023-12-14T07:06:07;5.80;99.90
18103;DHT22;9178;51.120;6.192;2023-12-14T07:08:38;5.70;99.90
18103;DHT22;9178;51.120;6.192;2023-12-14T07:11:06;5.70;99.90
18103;DHT22;9178;51.120;6.192;2023-12-14T07:13:36;5.70;99.90
18103;DHT22;9178;51.120;6.192;2023-12-14T07:16:06;5.70;99.90
18103;DHT22;9178;51.120;6.192;2023-12-14T07:18:33;5.80;99.90
18103;DHT22;9178;51.120;6.192;2023-12-14T07:21:01;5.80;99.90
18103;DHT22;9178;51.120;6.192;2023-12-14T07:23:29;5.80;99.90
18103;DHT22;9178;51.120;6.192;2023-12-14T07:25:58;5.80;99.90
18103;DHT22;9178;51.120;6.192;2023-12-14T07:28:27;5.80;99.90
18103;DHT22;9178;51.120;6.192;2023-12-14T07:30:56;5.70;99.90
18103;DHT22;9178;51.120;6.192;2023-12-14T07:33:26;5.70;99.90
18103;DHT22;9178;51.120;6.192;2023-12-14T07:35:54;5.70;99.90
18103;DHT22;9178;51.120;6.192;2023-12-14T07:38:22;5.70;99.90
18103;DHT22;9178;51.120;6.192;2023-12-14T07:40:49;5.60;99.90
18103;DHT22;9178;51.120;6.192;2023-12-14T07:43:18;5.60;99.90
18103;DHT22;9178;51.120;6.192;2023-12-14T07:45:46;5.60;99.90
18103;DHT22;9178;51.120;6.192;2023-12-14T07:48:13;5.70;99.90
18103;DHT22;9178;51.120;6.192;2023-12-14T07:50:41;5.60;99.90
18103;DHT22;9178;51.120;6.192;2023-12-14T07:53:08;5.70;99.90
18103;DHT22;9178;51.120;6.192;2023-12-14T07:55:35;5.70;99.90
18103;DHT22;9178;51.120;6.192;2023-12-14T07:58:02;5.70;99.90
18103;DHT22;9178;51.120;6.192;2023-12-14T08:00:29;5.70;99.90
18103;DHT22;9178;51.120;6.192;2023-12-14T08:02:58;5.70;99.90
18103;DHT22;9178;51.120;6.192;2023-12-14T08:05:26;5.70;99.90
18103;DHT22;9178;51.120;6.192;2023-12-14T08:07:53;5.70;99.90
18103;DHT22;9178;51.120;6.192;2023-12-14T08:10:20;5.80;99.90
18103;DHT22;9178;51.120;6.192;2023-12-14T08:12:47;5.80;99.90
18103;DHT22;9178;51.120;6.192;2023-12-14T08:15:14;5.80;99.90
18103;DHT22;9178;51.120;6.192;2023-12-14T08:17:44;5.80;99.90
18103;DHT22;9178;51.120;6.192;2023-12-14T08:20:13;5.70;99.90
18103;DHT22;9178;51.120;6.192;2023-12-14T08:22:41;5.70;99.90
18103;DHT22;9178;51.120;6.192;2023-12-14T08:25:12;5.80;99.90
18103;DHT22;9178;51.120;6.192;2023-12-14T08:27:40;5.80;99.90
18103;DHT22;9178;51.120;6.192;2023-12-14T08:30:08;5.80;99.90
18103;DHT22;9178;51.120;6.192;2023-12-14T08:32:35;5.80;99.90
18103;DHT22;9178;51.120;6.192;2023-12-14T08:35:03;5.80;99.90
18103;DHT22;9178;51.120;6.192;2023-12-14T08:37:33;5.80;99.90
18103;DHT22;9178;51.120;6.192;2023-12-14T08:40:01;5.80;99.90
18103;DHT22;9178;51.120;6.192;2023-12-14T08:42:35;5.70;99.90
18103;DHT22;9178;51.120;6.192;2023-12-14T08:45:02;5.60;99.90
18103;DHT22;9178;51.120;6.192;2023-12-14T08:47:29;5.60;99.90
18103;DHT22;9178;51.120;6.192;2023-12-14T08:49:57;5.60;99.90
18103;DHT22;9178;51.120;6.192;2023-12-14T08:52:24;5.60;99.90
18103;DHT22;9178;51.120;6.192;2023-12-14T08:54:52;5.60;99.90
18103;DHT22;9178;51.120;6.192;2023-12-14T08:57:19;5.60;99.90
18103;DHT22;9178;51.120;6.192;2023-12-14T08:59:46;5.60;99.90
18103;DHT22;9178;51.120;6.192;2023-12-14T09:02:15;5.60;99.90
18103;DHT22;9178;51.120;6.192;2023-12-14T09:04:43;5.60;99.90
18103;DHT22;9178;51.120;6.192;2023-12-14T09:07:10;5.60;99.90
18103;DHT22;9178;51.120;6.192;2023-12-14T09:09:48;5.70;99.90
18103;DHT22;9178;51.120;6.192;2023-12-14T09:12:17;5.70;99.90
18103;DHT22;9178;51.120;6.192;2023-12-14T09:14:44;5.70;99.90
18103;DHT22;9178;51.120;6.192;2023-12-14T09:17:14;5.70;99.90
18103;DHT22;9178;51.120;6.192;2023-12-14T09:19:41;5.70;99.90
18103;DHT22;9178;51.120;6.192;2023-12-14T09:22:08;5.70;99.90
18103;DHT22;9178;51.120;6.192;2023-12-14T09:24:36;5.70;99.90
18103;DHT22;9178;51.120;6.192;2023-12-14T09:27:04;5.70;99.90
18103;DHT22;9178;51.120;6.192;2023-12-14T09:29:35;5.70;99.90
18103;DHT22;9178;51.120;6.192;2023-12-14T09:32:07;5.70;99.90
18103;DHT22;9178;51.120;6.192;2023-12-14T09:34:35;5.70;99.90
18103;DHT22;9178;51.120;6.192;2023-12-14T09:37:01;5.70;99.90
18103;DHT22;9178;51.120;6.192;2023-12-14T09:39:29;5.70;99.90
18103;DHT22;9178;51.120;6.192;2023-12-14T09:42:04;5.70;99.90
18103;DHT22;9178;51.120;6.192;2023-12-14T09:44:32;5.70;99.90
18103;DHT22;9178;51.120;6.192;2023-12-14T09:47:02;5.70;99.90
18103;DHT22;9178;51.120;6.192;2023-12-14T09:49:30;5.70;99.90
18103;DHT22;9178;51.120;6.192;2023-12-14T09:52:00;5.70;99.90
18103;DHT22;9178;51.120;6.192;2023-12-14T09:54:28;5.70;99.90
18103;DHT22;9178;51.120;6.192;2023-12-14T09:56:55;5.60;99.90
18103;DHT22;9178;51.120;6.192;2023-12-14T09:59:27;5.60;99.90
18103;DHT22;9178;51.120;6.192;2023-12-14T10:02:10;5.70;99.90
18103;DHT22;9178;51.120;6.192;2023-12-14T10:04:38;5.70;99.90
18103;DHT22;9178;51.120;6.192;2023-12-14T10:07:05;5.60;99.90
18103;DHT22;9178;51.120;6.192;2023-12-14T10:09:34;5.70;99.90
18103;DHT22;9178;51.120;6.192;2023-12-14T10:12:04;5.70;99.90
18103;DHT22;9178;51.120;6.192;2023-12-14T10:14:33;5.70;99.90
18103;DHT22;9178;51.120;6.192;2023-12-14T10:17:16;5.70;99.90
18103;DHT22;9178;51.120;6.192;2023-12-14T10:19:43;5.70;99.90
18103;DHT22;9178;51.120;6.192;2023-12-14T10:22:11;5.80;99.90
18103;DHT22;9178;51.120;6.192;2023-12-14T10:24:38;5.70;99.90
18103;DHT22;9178;51.120;6.192;2023-12-14T10:27:06;5.70;99.90
18103;DHT22;9178;51.120;6.192;2023-12-14T10:29:34;5.70;99.90
18103;DHT22;9178;51.120;6.192;2023-12-14T10:32:03;5.80;99.90
18103;DHT22;9178;51.120;6.192;2023-12-14T10:34:34;5.80;99.90
18103;DHT22;9178;51.120;6.192;2023-12-14T10:37:01;5.80;99.90
18103;DHT22;9178;51.120;6.192;2023-12-14T10:39:31;5.80;99.90
18103;DHT22;9178;51.120;6.192;2023-12-14T10:42:02;5.80;99.90
18103;DHT22;9178;51.120;6.192;2023-12-14T10:44:32;5.90;99.90
18103;DHT22;9178;51.120;6.192;2023-12-14T10:47:01;5.90;99.90
18103;DHT22;9178;51.120;6.192;2023-12-14T10:49:34;5.80;99.90
18103;DHT22;9178;51.120;6.192;2023-12-14T10:52:02;5.80;99.90
18103;DHT22;9178;51.120;6.192;2023-12-14T10:54:32;5.90;99.90
18103;DHT22;9178;51.120;6.192;2023-12-14T10:57:04;5.90;99.90
18103;DHT22;9178;51.120;6.192;2023-12-14T10:59:33;5.90;99.90
18103;DHT22;9178;51.120;6.192;2023-12-14T11:02:07;6.00;99.90
18103;DHT22;9178;51.120;6.192;2023-12-14T11:05:01;6.00;99.90
18103;DHT22;9178;51.120;6.192;2023-12-14T11:07:48;6.00;99.90
18103;DHT22;9178;51.120;6.192;2023-12-14T11:10:21;6.00;99.90
18103;DHT22;9178;51.120;6.192;2023-12-14T11:13:03;6.00;99.90
18103;DHT22;9178;51.120;6.192;2023-12-14T11:15:34;6.00;99.90
18103;DHT22;9178;51.120;6.192;2023-12-14T11:18:21;6.00;99.90
18103;DHT22;9178;51.120;6.192;2023-12-14T11:20:57;6.10;99.90
18103;DHT22;9178;51.120;6.192;2023-12-14T11:23:41;6.10;99.90
18103;DHT22;9178;51.120;6.192;2023-12-14T11:26:29;6.10;99.90
18103;DHT22;9178;51.120;6.192;2023-12-14T11:28:57;6.10;99.90
18103;DHT22;9178;51.120;6.192;2023-12-14T11:31:25;6.00;99.90
18103;DHT22;9178;51.120;6.192;2023-12-14T11:33:53;6.00;99.90
18103;DHT22;9178;51.120;6.192;2023-12-14T11:36:27;5.90;99.90
18103;DHT22;9178;51.120;6.192;2023-12-14T11:38:58;6.00;99.90
18103;DHT22;9178;51.120;6.192;2023-12-14T11:41:40;6.00;99.90
18103;DHT22;9178;51.120;6.192;2023-12-14T11:44:07;6.00;99.90
18103;DHT22;9178;51.120;6.192;2023-12-14T11:46:34;6.00;99.90
18103;DHT22;9178;51.120;6.192;2023-12-14T11:49:02;6.00;99.90
18103;DHT22;9178;51.120;6.192;2023-12-14T11:51:32;6.10;99.90
18103;DHT22;9178;51.120;6.192;2023-12-14T11:54:01;6.10;99.90
18103;DHT22;9178;51.120;6.192;2023-12-14T11:56:28;6.10;99.90
18103;DHT22;9178;51.120;6.192;2023-12-14T11:59:04;6.20;99.90
18103;DHT22;9178;51.120;6.192;2023-12-14T12:01:31;6.20;99.90
18103;DHT22;9178;51.120;6.192;2023-12-14T12:04:08;6.10;99.90
18103;DHT22;9178;51.120;6.192;2023-12-14T12:06:37;6.10;99.90
18103;DHT22;9178;51.120;6.192;2023-12-14T12:09:05;6.10;99.90
18103;DHT22;9178;51.120;6.192;2023-12-14T12:11:36;6.10;99.90
18103;DHT22;9178;51.120;6.192;2023-12-14T12:14:05;6.10;99.90
18103;DHT22;9178;51.120;6.192;2023-12-14T12:16:32;6.10;99.90
18103;DHT22;9178;51.120;6.192;2023-12-14T12:19:06;6.20;99.90
18103;DHT22;9178;51.120;6.192;2023-12-14T12:21:33;6.20;99.90
18103;DHT22;9178;51.120;6.192;2023-12-14T12:24:16;6.20;99.90
18103;DHT22;9178;51.120;6.192;2023-12-14T12:26:43;6.10;99.90
18103;DHT22;9178;51.120;6.192;2023-12-14T12:29:10;6.00;99.90
18103;DHT22;9178;51.120;6.192;2023-12-14T12:31:39;6.00;99.90
18103;DHT22;9178;51.120;6.192;2023-12-14T12:34:08;6.00;99.90
18103;DHT22;9178;51.120;6.192;2023-12-14T12:36:35;6.10;99.90
18103;DHT22;9178;51.120;6.192;2023-12-14T12:39:03;6.10;99.90
18103;DHT22;9178;51.120;6.192;2023-12-14T12:41:35;6.20;99.90
18103;DHT22;9178;51.120;6.192;2023-12-14T12:44:03;6.20;99.90
18103;DHT22;9178;51.120;6.192;2023-12-14T12:46:38;6.20;99.90
18103;DHT22;9178;51.120;6.192;2023-12-14T12:49:06;6.10;99.90
18103;DHT22;9178;51.120;6.192;2023-12-14T12:51:35;6.10;99.90
18103;DHT22;9178;51.120;6.192;2023-12-14T12:54:04;6.00;99.90
18103;DHT22;9178;51.120;6.192;2023-12-14T12:56:33;6.00;99.90
18103;DHT22;9178;51.120;6.192;2023-12-14T12:59:00;6.00;99.90
18103;DHT22;9178;51.120;6.192;2023-12-14T13:01:30;6.00;99.90
18103;DHT22;9178;51.120;6.192;2023-12-14T13:04:17;6.00;99.90
18103;DHT22;9178;51.120;6.192;2023-12-14T13:06:51;6.00;99.90
18103;DHT22;9178;51.120;6.192;2023-12-14T13:09:18;6.00;99.90
18103;DHT22;9178;51.120;6.192;2023-12-14T13:11:50;6.00;99.90
18103;DHT22;9178;51.120;6.192;2023-12-14T13:14:18;6.10;99.90
18103;DHT22;9178;51.120;6.192;2023-12-14T13:17:03;6.10;99.90
18103;DHT22;9178;51.120;6.192;2023-12-14T13:19:30;6.10;99.90
18103;DHT22;9178;51.120;6.192;2023-12-14T13:22:05;6.10;99.90
18103;DHT22;9178;51.120;6.192;2023-12-14T13:24:33;6.10;99.90
18103;DHT22;9178;51.120;6.192;2023-12-14T13:27:09;6.10;99.90
18103;DHT22;9178;51.120;6.192;2023-12-14T13:29:38;6.10;99.90
18103;DHT22;9178;51.120;6.192;2023-12-14T13:32:12;6.10;99.90
18103;DHT22;9178;51.120;6.192;2023-12-14T13:34:39;6.20;99.90
18103;DHT22;9178;51.120;6.192;2023-12-14T13:37:06;6.20;99.90
18103;DHT22;9178;51.120;6.192;2023-12-14T13:39:34;6.20;99.90
18103;DHT22;9178;51.120;6.192;2023-12-14T13:42:04;6.20;99.90
18103;DHT22;9178;51.120;6.192;2023-12-14T13:44:33;6.20;99.90
18103;DHT22;9178;51.120;6.192;2023-12-14T13:47:01;6.20;99.90
18103;DHT22;9178;51.120;6.192;2023-12-14T13:49:28;6.10;99.90
18103;DHT22;9178;51.120;6.192;2023-12-14T13:51:57;6.10;99.90
18103;DHT22;9178;51.120;6.192;2023-12-14T13:54:24;6.10;99.90
18103;DHT22;9178;51.120;6.192;2023-12-14T13:56:51;6.10;99.90
18103;DHT22;9178;51.120;6.192;2023-12-14T13:59:19;6.10;99.90
18103;DHT22;9178;51.120;6.192;2023-12-14T14:01:50;6.00;99.90
18103;DHT22;9178;51.120;6.192;2023-12-14T14:04:17;6.10;99.90
18103;DHT22;9178;51.120;6.192;2023-12-14T14:06:44;6.00;99.90
18103;DHT22;9178;51.120;6.192;2023-12-14T14:09:15;6.00;99.90
18103;DHT22;9178;51.120;6.192;2023-12-14T14:11:42;6.00;99.90
18103;DHT22;9178;51.120;6.192;2023-12-14T14:16:17;6.00;99.90
18103;DHT22;9178;51.120;6.192;2023-12-14T14:17:58;6.00;99.90
18103;DHT22;9178;51.120;6.192;2023-12-14T14:20:26;6.00;99.90
18103;DHT22;9178;51.120;6.192;2023-12-14T14:22:53;6.00;99.90
18103;DHT22;9178;51.120;6.192;2023-12-14T14:25:20;6.00;99.90
18103;DHT22;9178;51.120;6.192;2023-12-14T14:27:47;6.00;99.90
18103;DHT22;9178;51.120;6.192;2023-12-14T14:30:14;6.00;99.90
18103;DHT22;9178;51.120;6.192;2023-12-14T14:32:42;6.00;99.90
18103;DHT22;9178;51.120;6.192;2023-12-14T14:35:13;6.00;99.90
18103;DHT22;9178;51.120;6.192;2023-12-14T14:37:43;6.00;99.90
18103;DHT22;9178;51.120;6.192;2023-12-14T14:40:12;6.00;99.90
18103;DHT22;9178;51.120;6.192;2023-12-14T14:42:42;6.00;99.90
18103;DHT22;9178;51.120;6.192;2023-12-14T14:45:10;5.90;99.90
18103;DHT22;9178;51.120;6.192;2023-12-14T14:47:39;5.90;99.90
18103;DHT22;9178;51.120;6.192;2023-12-14T14:50:08;5.90;99.90
18103;DHT22;9178;51.120;6.192;2023-12-14T14:52:39;5.90;99.90
18103;DHT22;9178;51.120;6.192;2023-12-14T14:55:06;5.80;99.90
18103;DHT22;9178;51.120;6.192;2023-12-14T14:57:34;5.80;99.90
18103;DHT22;9178;51.120;6.192;2023-12-14T15:00:06;5.80;99.90
18103;DHT22;9178;51.120;6.192;2023-12-14T15:02:34;5.70;99.90
18103;DHT22;9178;51.120;6.192;2023-12-14T15:05:01;5.70;99.90
18103;DHT22;9178;51.120;6.192;2023-12-14T15:07:28;5.70;99.90
18103;DHT22;9178;51.120;6.192;2023-12-14T15:09:57;5.60;99.90
18103;DHT22;9178;51.120;6.192;2023-12-14T15:12:24;5.60;99.90
18103;DHT22;9178;51.120;6.192;2023-12-14T15:14:53;5.60;99.90
18103;DHT22;9178;51.120;6.192;2023-12-14T15:17:21;5.60;99.90
18103;DHT22;9178;51.120;6.192;2023-12-14T15:19:48;5.60;99.90
18103;DHT22;9178;51.120;6.192;2023-12-14T15:22:15;5.50;99.90
18103;DHT22;9178;51.120;6.192;2023-12-14T15:24:42;5.50;99.90
18103;DHT22;9178;51.120;6.192;2023-12-14T15:27:11;5.50;99.90
18103;DHT22;9178;51.120;6.192;2023-12-14T15:29:39;5.40;99.90
18103;DHT22;9178;51.120;6.192;2023-12-14T15:32:06;5.40;99.90
18103;DHT22;9178;51.120;6.192;2023-12-14T15:34:33;5.40;99.90
18103;DHT22;9178;51.120;6.192;2023-12-14T15:37:01;5.30;99.90
18103;DHT22;9178;51.120;6.192;2023-12-14T15:39:28;5.30;99.90
18103;DHT22;9178;51.120;6.192;2023-12-14T15:41:55;5.30;99.90
18103;DHT22;9178;51.120;6.192;2023-12-14T15:44:24;5.20;99.90
18103;DHT22;9178;51.120;6.192;2023-12-14T15:46:53;5.20;99.90
18103;DHT22;9178;51.120;6.192;2023-12-14T15:49:22;5.20;99.90
18103;DHT22;9178;51.120;6.192;2023-12-14T15:52:07;5.10;99.90
18103;DHT22;9178;51.120;6.192;2023-12-14T15:54:40;5.10;99.90
18103;DHT22;9178;51.120;6.192;2023-12-14T15:57:09;5.10;99.90
18103;DHT22;9178;51.120;6.192;2023-12-14T15:59:58;5.10;99.90
18103;DHT22;9178;51.120;6.192;2023-12-14T16:02:28;5.00;99.90
18103;DHT22;9178;51.120;6.192;2023-12-14T16:05:07;5.00;99.90
18103;DHT22;9178;51.120;6.192;2023-12-14T16:07:34;5.00;99.90
18103;DHT22;9178;51.120;6.192;2023-12-14T16:10:14;5.00;99.90
18103;DHT22;9178;51.120;6.192;2023-12-14T16:12:42;5.00;99.90
18103;DHT22;9178;51.120;6.192;2023-12-14T16:15:22;4.90;99.90
18103;DHT22;9178;51.120;6.192;2023-12-14T16:17:49;4.90;99.90
18103;DHT22;9178;51.120;6.192;2023-12-14T16:20:16;4.90;99.90